Terminal Aerodrome Forecast
Issued by NWS Upton, NY

Current Version | Previous Version | Text Only | Print | Product List | Glossary On
Versions: 1 2 3 4 5 6 7 8 9 10 11 12 13 14 15 16 17 18 19 20 21 22 23 24 25 26 27 28
000
FTUS41 KOKX 220800 AAB
TAFBDR
TAF AMD
KBDR 220831Z 2209/2306 03007KT P6SM BKN020 OVC030
      TEMPO 2209/2212 BKN015
     FM221200 06008KT P6SM BKN010 OVC020
     FM221700 07008KT 6SM -RA BKN008 OVC020
     FM230000 08009KT 3SM -RA BR OVC004=

USA.gov is the U.S. government's official web portal to all federal, state and local government web resources and services.